sensor_id;sensor_type;location;lat;lon;timestamp;P1;durP1;ratioP1;P2;durP2;ratioP2
8704;SDS011;4389;41.932;25.904;2022-08-20T00:00:32;8.77;;;7.80;;
8704;SDS011;4389;41.932;25.904;2022-08-20T00:03:02;8.97;;;7.87;;
8704;SDS011;4389;41.932;25.904;2022-08-20T00:05:33;13.80;;;8.97;;
8704;SDS011;4389;41.932;25.904;2022-08-20T00:08:03;11.73;;;8.23;;
8704;SDS011;4389;41.932;25.904;2022-08-20T00:10:31;10.10;;;8.03;;
8704;SDS011;4389;41.932;25.904;2022-08-20T00:12:59;13.07;;;8.33;;
8704;SDS011;4389;41.932;25.904;2022-08-20T00:15:28;9.40;;;8.50;;
8704;SDS011;4389;41.932;25.904;2022-08-20T00:17:57;11.87;;;8.57;;
8704;SDS011;4389;41.932;25.904;2022-08-20T00:20:25;10.57;;;7.73;;
8704;SDS011;4389;41.932;25.904;2022-08-20T00:22:54;10.73;;;7.93;;
8704;SDS011;4389;41.932;25.904;2022-08-20T00:25:22;13.57;;;8.37;;
8704;SDS011;4389;41.932;25.904;2022-08-20T00:27:50;12.80;;;8.70;;
8704;SDS011;4389;41.932;25.904;2022-08-20T00:30:17;12.73;;;8.50;;
8704;SDS011;4389;41.932;25.904;2022-08-20T00:32:46;12.00;;;8.20;;
8704;SDS011;4389;41.932;25.904;2022-08-20T00:35:15;9.63;;;7.87;;
8704;SDS011;4389;41.932;25.904;2022-08-20T00:37:43;10.40;;;8.13;;
8704;SDS011;4389;41.932;25.904;2022-08-20T00:40:10;10.00;;;7.97;;
8704;SDS011;4389;41.932;25.904;2022-08-20T00:42:41;13.30;;;8.73;;
8704;SDS011;4389;41.932;25.904;2022-08-20T00:45:09;12.33;;;8.03;;
8704;SDS011;4389;41.932;25.904;2022-08-20T00:47:37;9.63;;;8.53;;
8704;SDS011;4389;41.932;25.904;2022-08-20T00:50:06;11.07;;;9.80;;
8704;SDS011;4389;41.932;25.904;2022-08-20T00:52:34;11.83;;;8.40;;
8704;SDS011;4389;41.932;25.904;2022-08-20T00:55:04;11.60;;;9.23;;
8704;SDS011;4389;41.932;25.904;2022-08-20T00:57:33;13.67;;;8.03;;
8704;SDS011;4389;41.932;25.904;2022-08-20T01:00:07;9.87;;;8.27;;
8704;SDS011;4389;41.932;25.904;2022-08-20T01:02:36;12.17;;;8.37;;
8704;SDS011;4389;41.932;25.904;2022-08-20T01:05:03;12.33;;;8.43;;
8704;SDS011;4389;41.932;25.904;2022-08-20T01:07:32;12.53;;;7.70;;
8704;SDS011;4389;41.932;25.904;2022-08-20T01:09:59;10.60;;;8.60;;
8704;SDS011;4389;41.932;25.904;2022-08-20T01:12:28;12.73;;;9.03;;
8704;SDS011;4389;41.932;25.904;2022-08-20T01:14:57;9.93;;;7.93;;
8704;SDS011;4389;41.932;25.904;2022-08-20T01:17:29;12.43;;;9.10;;
8704;SDS011;4389;41.932;25.904;2022-08-20T01:19:59;10.27;;;8.03;;
8704;SDS011;4389;41.932;25.904;2022-08-20T01:22:31;12.70;;;11.40;;
8704;SDS011;4389;41.932;25.904;2022-08-20T01:25:24;53.43;;;11.13;;
8704;SDS011;4389;41.932;25.904;2022-08-20T01:27:58;22.07;;;9.60;;
8704;SDS011;4389;41.932;25.904;2022-08-20T01:30:25;12.90;;;8.30;;
8704;SDS011;4389;41.932;25.904;2022-08-20T01:32:54;10.23;;;8.03;;
8704;SDS011;4389;41.932;25.904;2022-08-20T01:35:21;10.77;;;8.90;;
8704;SDS011;4389;41.932;25.904;2022-08-20T01:37:49;10.33;;;8.70;;
8704;SDS011;4389;41.932;25.904;2022-08-20T01:40:18;13.27;;;8.40;;
8704;SDS011;4389;41.932;25.904;2022-08-20T01:42:54;11.10;;;9.13;;
8704;SDS011;4389;41.932;25.904;2022-08-20T01:45:23;12.93;;;8.93;;
8704;SDS011;4389;41.932;25.904;2022-08-20T01:47:51;20.83;;;11.17;;
8704;SDS011;4389;41.932;25.904;2022-08-20T01:50:20;18.97;;;11.50;;
8704;SDS011;4389;41.932;25.904;2022-08-20T01:52:53;11.60;;;9.17;;
8704;SDS011;4389;41.932;25.904;2022-08-20T01:55:26;17.83;;;9.83;;
8704;SDS011;4389;41.932;25.904;2022-08-20T01:57:53;14.53;;;9.93;;
8704;SDS011;4389;41.932;25.904;2022-08-20T02:00:23;15.53;;;10.00;;
8704;SDS011;4389;41.932;25.904;2022-08-20T02:02:50;16.10;;;11.07;;
8704;SDS011;4389;41.932;25.904;2022-08-20T02:05:17;17.90;;;11.30;;
8704;SDS011;4389;41.932;25.904;2022-08-20T02:07:45;21.00;;;11.50;;
8704;SDS011;4389;41.932;25.904;2022-08-20T02:10:13;23.50;;;12.20;;
8704;SDS011;4389;41.932;25.904;2022-08-20T02:12:42;33.47;;;17.07;;
8704;SDS011;4389;41.932;25.904;2022-08-20T02:15:10;27.07;;;14.20;;
8704;SDS011;4389;41.932;25.904;2022-08-20T02:17:39;21.27;;;11.07;;
8704;SDS011;4389;41.932;25.904;2022-08-20T02:20:07;16.20;;;9.80;;
8704;SDS011;4389;41.932;25.904;2022-08-20T02:22:39;18.27;;;9.20;;
8704;SDS011;4389;41.932;25.904;2022-08-20T02:25:09;10.57;;;8.73;;
8704;SDS011;4389;41.932;25.904;2022-08-20T02:27:38;11.77;;;8.67;;
8704;SDS011;4389;41.932;25.904;2022-08-20T02:30:07;15.87;;;8.97;;
8704;SDS011;4389;41.932;25.904;2022-08-20T02:32:40;18.87;;;10.13;;
8704;SDS011;4389;41.932;25.904;2022-08-20T02:35:07;16.00;;;9.13;;
8704;SDS011;4389;41.932;25.904;2022-08-20T02:37:37;10.37;;;9.13;;
8704;SDS011;4389;41.932;25.904;2022-08-20T02:40:07;10.93;;;9.20;;
8704;SDS011;4389;41.932;25.904;2022-08-20T02:42:37;15.60;;;9.47;;
8704;SDS011;4389;41.932;25.904;2022-08-20T02:45:07;13.23;;;9.20;;
8704;SDS011;4389;41.932;25.904;2022-08-20T02:47:36;12.60;;;9.70;;
8704;SDS011;4389;41.932;25.904;2022-08-20T02:50:06;17.20;;;9.10;;
8704;SDS011;4389;41.932;25.904;2022-08-20T02:52:36;12.47;;;9.20;;
8704;SDS011;4389;41.932;25.904;2022-08-20T02:55:03;16.10;;;9.10;;
8704;SDS011;4389;41.932;25.904;2022-08-20T02:57:30;15.23;;;9.43;;
8704;SDS011;4389;41.932;25.904;2022-08-20T02:59:57;14.40;;;9.33;;
8704;SDS011;4389;41.932;25.904;2022-08-20T03:02:24;19.93;;;9.67;;
8704;SDS011;4389;41.932;25.904;2022-08-20T03:04:51;12.20;;;8.77;;
8704;SDS011;4389;41.932;25.904;2022-08-20T03:07:19;14.03;;;9.10;;
8704;SDS011;4389;41.932;25.904;2022-08-20T03:09:46;15.07;;;9.87;;
8704;SDS011;4389;41.932;25.904;2022-08-20T03:12:13;11.80;;;10.17;;
8704;SDS011;4389;41.932;25.904;2022-08-20T03:14:40;12.23;;;9.40;;
8704;SDS011;4389;41.932;25.904;2022-08-20T03:17:07;15.27;;;9.83;;
8704;SDS011;4389;41.932;25.904;2022-08-20T03:19:34;14.57;;;9.50;;
8704;SDS011;4389;41.932;25.904;2022-08-20T03:22:01;12.13;;;9.80;;
8704;SDS011;4389;41.932;25.904;2022-08-20T03:24:29;13.13;;;9.80;;
8704;SDS011;4389;41.932;25.904;2022-08-20T03:26:56;11.03;;;9.57;;
8704;SDS011;4389;41.932;25.904;2022-08-20T03:29:23;10.00;;;9.00;;
8704;SDS011;4389;41.932;25.904;2022-08-20T03:31:49;15.30;;;10.33;;
8704;SDS011;4389;41.932;25.904;2022-08-20T03:34:16;11.33;;;9.50;;
8704;SDS011;4389;41.932;25.904;2022-08-20T03:36:43;13.17;;;10.17;;
8704;SDS011;4389;41.932;25.904;2022-08-20T03:39:10;20.27;;;10.10;;
8704;SDS011;4389;41.932;25.904;2022-08-20T03:41:38;11.97;;;9.43;;
8704;SDS011;4389;41.932;25.904;2022-08-20T03:44:05;13.53;;;10.43;;
8704;SDS011;4389;41.932;25.904;2022-08-20T03:46:32;14.23;;;9.63;;
8704;SDS011;4389;41.932;25.904;2022-08-20T03:49:00;14.47;;;9.57;;
8704;SDS011;4389;41.932;25.904;2022-08-20T03:51:27;13.03;;;10.80;;
8704;SDS011;4389;41.932;25.904;2022-08-20T03:53:55;14.80;;;9.60;;
8704;SDS011;4389;41.932;25.904;2022-08-20T03:56:22;15.40;;;10.60;;
8704;SDS011;4389;41.932;25.904;2022-08-20T03:58:50;14.60;;;9.83;;
8704;SDS011;4389;41.932;25.904;2022-08-20T04:01:18;11.70;;;9.57;;
8704;SDS011;4389;41.932;25.904;2022-08-20T04:03:45;25.17;;;10.57;;
8704;SDS011;4389;41.932;25.904;2022-08-20T04:06:12;16.07;;;9.93;;
8704;SDS011;4389;41.932;25.904;2022-08-20T04:08:38;23.93;;;9.30;;
8704;SDS011;4389;41.932;25.904;2022-08-20T04:11:06;13.30;;;9.80;;
8704;SDS011;4389;41.932;25.904;2022-08-20T04:13:33;24.83;;;10.90;;
8704;SDS011;4389;41.932;25.904;2022-08-20T04:16:02;49.67;;;11.20;;
8704;SDS011;4389;41.932;25.904;2022-08-20T04:18:33;43.73;;;14.50;;
8704;SDS011;4389;41.932;25.904;2022-08-20T04:21:02;37.30;;;11.60;;
8704;SDS011;4389;41.932;25.904;2022-08-20T04:23:29;20.37;;;9.73;;
8704;SDS011;4389;41.932;25.904;2022-08-20T04:25:56;41.90;;;11.00;;
8704;SDS011;4389;41.932;25.904;2022-08-20T04:28:23;23.37;;;9.17;;
8704;SDS011;4389;41.932;25.904;2022-08-20T04:30:52;28.25;;;8.77;;
8704;SDS011;4389;41.932;25.904;2022-08-20T04:33:22;48.27;;;12.37;;
8704;SDS011;4389;41.932;25.904;2022-08-20T04:35:50;44.63;;;11.35;;
8704;SDS011;4389;41.932;25.904;2022-08-20T04:38:18;22.88;;;11.13;;
8704;SDS011;4389;41.932;25.904;2022-08-20T04:40:46;20.67;;;10.83;;
8704;SDS011;4389;41.932;25.904;2022-08-20T04:43:23;26.38;;;11.60;;
8704;SDS011;4389;41.932;25.904;2022-08-20T04:45:52;25.23;;;9.77;;
8704;SDS011;4389;41.932;25.904;2022-08-20T04:48:24;16.73;;;9.50;;
8704;SDS011;4389;41.932;25.904;2022-08-20T04:50:52;12.80;;;9.18;;
8704;SDS011;4389;41.932;25.904;2022-08-20T04:53:21;15.93;;;9.23;;
8704;SDS011;4389;41.932;25.904;2022-08-20T04:55:51;19.92;;;9.70;;
8704;SDS011;4389;41.932;25.904;2022-08-20T04:58:20;20.63;;;12.07;;
8704;SDS011;4389;41.932;25.904;2022-08-20T05:00:49;35.15;;;11.10;;
8704;SDS011;4389;41.932;25.904;2022-08-20T05:03:18;29.95;;;10.35;;
8704;SDS011;4389;41.932;25.904;2022-08-20T05:05:47;29.60;;;11.93;;
8704;SDS011;4389;41.932;25.904;2022-08-20T05:08:15;29.98;;;13.43;;
8704;SDS011;4389;41.932;25.904;2022-08-20T05:10:43;24.60;;;10.35;;
8704;SDS011;4389;41.932;25.904;2022-08-20T05:13:11;24.42;;;10.10;;
8704;SDS011;4389;41.932;25.904;2022-08-20T05:15:38;27.13;;;10.77;;
8704;SDS011;4389;41.932;25.904;2022-08-20T05:18:06;22.77;;;11.10;;
8704;SDS011;4389;41.932;25.904;2022-08-20T05:20:35;20.40;;;10.63;;
8704;SDS011;4389;41.932;25.904;2022-08-20T05:23:06;19.30;;;10.83;;
8704;SDS011;4389;41.932;25.904;2022-08-20T05:25:34;24.43;;;11.47;;
8704;SDS011;4389;41.932;25.904;2022-08-20T05:28:03;24.47;;;11.20;;
8704;SDS011;4389;41.932;25.904;2022-08-20T05:30:34;12.77;;;9.97;;
8704;SDS011;4389;41.932;25.904;2022-08-20T05:33:02;21.03;;;10.67;;
8704;SDS011;4389;41.932;25.904;2022-08-20T05:35:32;16.33;;;9.20;;
8704;SDS011;4389;41.932;25.904;2022-08-20T05:38:02;12.10;;;9.63;;
8704;SDS011;4389;41.932;25.904;2022-08-20T05:40:31;12.13;;;9.97;;
8704;SDS011;4389;41.932;25.904;2022-08-20T05:42:58;13.57;;;8.77;;
8704;SDS011;4389;41.932;25.904;2022-08-20T05:45:25;17.37;;;8.97;;
8704;SDS011;4389;41.932;25.904;2022-08-20T05:47:52;17.17;;;8.88;;
8704;SDS011;4389;41.932;25.904;2022-08-20T05:50:19;15.32;;;8.85;;
8704;SDS011;4389;41.932;25.904;2022-08-20T05:52:46;16.83;;;10.35;;
8704;SDS011;4389;41.932;25.904;2022-08-20T05:55:13;19.38;;;11.07;;
8704;SDS011;4389;41.932;25.904;2022-08-20T05:57:42;11.43;;;8.90;;
8704;SDS011;4389;41.932;25.904;2022-08-20T06:00:11;17.25;;;8.98;;
8704;SDS011;4389;41.932;25.904;2022-08-20T06:02:39;10.27;;;9.20;;
8704;SDS011;4389;41.932;25.904;2022-08-20T06:05:25;18.73;;;9.73;;
8704;SDS011;4389;41.932;25.904;2022-08-20T06:07:51;20.73;;;9.35;;
8704;SDS011;4389;41.932;25.904;2022-08-20T06:10:19;13.25;;;10.43;;
8704;SDS011;4389;41.932;25.904;2022-08-20T06:12:47;18.25;;;9.63;;
8704;SDS011;4389;41.932;25.904;2022-08-20T06:15:15;11.60;;;9.77;;
8704;SDS011;4389;41.932;25.904;2022-08-20T06:17:42;15.73;;;9.65;;
8704;SDS011;4389;41.932;25.904;2022-08-20T06:20:09;17.10;;;10.00;;
8704;SDS011;4389;41.932;25.904;2022-08-20T06:22:37;14.65;;;9.60;;
8704;SDS011;4389;41.932;25.904;2022-08-20T06:25:04;14.63;;;9.75;;
8704;SDS011;4389;41.932;25.904;2022-08-20T06:27:32;18.95;;;8.70;;
8704;SDS011;4389;41.932;25.904;2022-08-20T06:30:05;10.80;;;8.68;;
8704;SDS011;4389;41.932;25.904;2022-08-20T06:32:33;15.43;;;8.93;;
8704;SDS011;4389;41.932;25.904;2022-08-20T06:35:00;13.40;;;9.05;;
8704;SDS011;4389;41.932;25.904;2022-08-20T06:37:28;16.08;;;8.70;;
8704;SDS011;4389;41.932;25.904;2022-08-20T06:39:58;16.90;;;9.00;;
8704;SDS011;4389;41.932;25.904;2022-08-20T06:42:27;9.60;;;8.30;;
8704;SDS011;4389;41.932;25.904;2022-08-20T06:44:54;12.70;;;8.95;;
8704;SDS011;4389;41.932;25.904;2022-08-20T06:47:25;14.48;;;8.00;;
8704;SDS011;4389;41.932;25.904;2022-08-20T06:49:52;11.88;;;8.02;;
8704;SDS011;4389;41.932;25.904;2022-08-20T06:52:18;11.35;;;8.10;;
8704;SDS011;4389;41.932;25.904;2022-08-20T06:54:45;11.00;;;8.75;;
8704;SDS011;4389;41.932;25.904;2022-08-20T06:57:12;12.60;;;8.00;;
8704;SDS011;4389;41.932;25.904;2022-08-20T06:59:39;16.08;;;8.90;;
8704;SDS011;4389;41.932;25.904;2022-08-20T07:02:07;9.52;;;7.80;;
8704;SDS011;4389;41.932;25.904;2022-08-20T07:04:35;7.80;;;7.10;;
8704;SDS011;4389;41.932;25.904;2022-08-20T07:07:02;9.25;;;7.70;;
8704;SDS011;4389;41.932;25.904;2022-08-20T07:09:29;10.35;;;7.22;;
8704;SDS011;4389;41.932;25.904;2022-08-20T07:11:56;11.38;;;7.35;;
8704;SDS011;4389;41.932;25.904;2022-08-20T07:14:23;12.30;;;7.97;;
8704;SDS011;4389;41.932;25.904;2022-08-20T07:16:50;13.25;;;8.15;;
8704;SDS011;4389;41.932;25.904;2022-08-20T07:19:17;19.85;;;8.85;;
8704;SDS011;4389;41.932;25.904;2022-08-20T07:21:45;24.58;;;8.45;;
8704;SDS011;4389;41.932;25.904;2022-08-20T07:24:13;17.15;;;8.32;;
8704;SDS011;4389;41.932;25.904;2022-08-20T07:26:40;11.18;;;7.68;;
8704;SDS011;4389;41.932;25.904;2022-08-20T07:29:07;18.02;;;8.73;;
8704;SDS011;4389;41.932;25.904;2022-08-20T07:31:34;13.02;;;8.35;;
8704;SDS011;4389;41.932;25.904;2022-08-20T07:34:18;9.30;;;7.43;;
8704;SDS011;4389;41.932;25.904;2022-08-20T07:36:46;14.82;;;8.38;;
8704;SDS011;4389;41.932;25.904;2022-08-20T07:39:15;10.27;;;7.07;;
8704;SDS011;4389;41.932;25.904;2022-08-20T07:41:41;14.10;;;7.03;;
8704;SDS011;4389;41.932;25.904;2022-08-20T07:44:08;14.30;;;7.78;;
8704;SDS011;4389;41.932;25.904;2022-08-20T07:46:35;15.40;;;7.07;;
8704;SDS011;4389;41.932;25.904;2022-08-20T07:49:02;13.13;;;8.80;;
8704;SDS011;4389;41.932;25.904;2022-08-20T07:51:34;9.85;;;7.60;;
8704;SDS011;4389;41.932;25.904;2022-08-20T07:54:03;9.68;;;7.20;;
8704;SDS011;4389;41.932;25.904;2022-08-20T07:56:30;10.77;;;7.72;;
8704;SDS011;4389;41.932;25.904;2022-08-20T07:58:57;26.38;;;8.23;;
8704;SDS011;4389;41.932;25.904;2022-08-20T08:01:26;11.00;;;7.25;;
8704;SDS011;4389;41.932;25.904;2022-08-20T08:03:55;13.20;;;7.72;;
8704;SDS011;4389;41.932;25.904;2022-08-20T08:06:24;11.45;;;7.47;;
8704;SDS011;4389;41.932;25.904;2022-08-20T08:08:52;10.80;;;6.25;;
8704;SDS011;4389;41.932;25.904;2022-08-20T08:11:21;23.95;;;6.32;;
8704;SDS011;4389;41.932;25.904;2022-08-20T08:13:48;38.67;;;9.18;;
8704;SDS011;4389;41.932;25.904;2022-08-20T08:16:16;9.80;;;6.68;;
8704;SDS011;4389;41.932;25.904;2022-08-20T08:18:44;10.27;;;6.68;;
8704;SDS011;4389;41.932;25.904;2022-08-20T08:21:14;10.02;;;6.55;;
8704;SDS011;4389;41.932;25.904;2022-08-20T08:23:42;11.10;;;6.50;;
8704;SDS011;4389;41.932;25.904;2022-08-20T08:26:09;15.10;;;7.30;;
8704;SDS011;4389;41.932;25.904;2022-08-20T08:28:39;12.52;;;6.85;;
8704;SDS011;4389;41.932;25.904;2022-08-20T08:31:08;10.80;;;6.90;;
8704;SDS011;4389;41.932;25.904;2022-08-20T08:33:35;18.80;;;8.32;;
8704;SDS011;4389;41.932;25.904;2022-08-20T08:36:05;15.48;;;6.47;;
8704;SDS011;4389;41.932;25.904;2022-08-20T08:38:35;12.38;;;5.47;;
8704;SDS011;4389;41.932;25.904;2022-08-20T08:41:07;11.15;;;5.82;;
8704;SDS011;4389;41.932;25.904;2022-08-20T08:43:47;13.38;;;5.97;;
8704;SDS011;4389;41.932;25.904;2022-08-20T08:46:18;13.82;;;6.18;;
8704;SDS011;4389;41.932;25.904;2022-08-20T08:48:50;13.70;;;7.30;;
8704;SDS011;4389;41.932;25.904;2022-08-20T08:51:22;8.63;;;6.25;;
8704;SDS011;4389;41.932;25.904;2022-08-20T08:53:53;10.80;;;6.32;;
8704;SDS011;4389;41.932;25.904;2022-08-20T08:56:22;10.25;;;5.88;;
8704;SDS011;4389;41.932;25.904;2022-08-20T08:58:51;18.63;;;6.65;;
8704;SDS011;4389;41.932;25.904;2022-08-20T09:01:20;12.68;;;10.35;;
8704;SDS011;4389;41.932;25.904;2022-08-20T09:03:48;28.23;;;8.85;;
8704;SDS011;4389;41.932;25.904;2022-08-20T09:06:17;13.30;;;6.18;;
8704;SDS011;4389;41.932;25.904;2022-08-20T09:08:50;12.25;;;6.45;;
8704;SDS011;4389;41.932;25.904;2022-08-20T09:11:19;11.00;;;5.93;;
8704;SDS011;4389;41.932;25.904;2022-08-20T09:13:47;15.90;;;6.20;;
8704;SDS011;4389;41.932;25.904;2022-08-20T09:16:16;15.63;;;8.65;;
8704;SDS011;4389;41.932;25.904;2022-08-20T09:18:43;12.15;;;7.75;;
8704;SDS011;4389;41.932;25.904;2022-08-20T09:21:10;21.52;;;8.50;;
8704;SDS011;4389;41.932;25.904;2022-08-20T09:23:38;10.70;;;7.38;;
8704;SDS011;4389;41.932;25.904;2022-08-20T09:26:05;15.00;;;6.63;;
8704;SDS011;4389;41.932;25.904;2022-08-20T09:28:32;12.43;;;6.40;;
8704;SDS011;4389;41.932;25.904;2022-08-20T09:31:00;19.60;;;6.93;;
8704;SDS011;4389;41.932;25.904;2022-08-20T09:33:28;11.38;;;5.97;;
8704;SDS011;4389;41.932;25.904;2022-08-20T09:35:55;11.43;;;7.07;;
8704;SDS011;4389;41.932;25.904;2022-08-20T09:38:22;12.80;;;9.23;;
8704;SDS011;4389;41.932;25.904;2022-08-20T09:40:49;9.52;;;6.82;;
8704;SDS011;4389;41.932;25.904;2022-08-20T09:43:16;12.60;;;10.02;;
8704;SDS011;4389;41.932;25.904;2022-08-20T09:45:43;11.98;;;7.57;;
8704;SDS011;4389;41.932;25.904;2022-08-20T09:48:10;9.80;;;5.97;;
8704;SDS011;4389;41.932;25.904;2022-08-20T09:50:39;15.25;;;7.88;;
8704;SDS011;4389;41.932;25.904;2022-08-20T09:53:11;15.57;;;8.05;;
8704;SDS011;4389;41.932;25.904;2022-08-20T09:55:39;9.05;;;5.90;;
8704;SDS011;4389;41.932;25.904;2022-08-20T09:58:10;10.18;;;7.50;;
8704;SDS011;4389;41.932;25.904;2022-08-20T10:00:44;11.82;;;8.35;;
8704;SDS011;4389;41.932;25.904;2022-08-20T10:03:11;16.27;;;8.25;;
8704;SDS011;4389;41.932;25.904;2022-08-20T10:05:39;11.68;;;6.40;;
8704;SDS011;4389;41.932;25.904;2022-08-20T10:08:07;8.43;;;6.22;;
8704;SDS011;4389;41.932;25.904;2022-08-20T10:10:35;11.73;;;6.97;;
8704;SDS011;4389;41.932;25.904;2022-08-20T10:13:02;15.57;;;8.15;;
8704;SDS011;4389;41.932;25.904;2022-08-20T10:15:29;10.10;;;6.28;;
8704;SDS011;4389;41.932;25.904;2022-08-20T10:17:56;11.10;;;8.32;;
8704;SDS011;4389;41.932;25.904;2022-08-20T10:20:24;16.27;;;9.00;;
8704;SDS011;4389;41.932;25.904;2022-08-20T10:22:52;9.30;;;6.30;;
8704;SDS011;4389;41.932;25.904;2022-08-20T10:25:19;9.43;;;6.53;;
8704;SDS011;4389;41.932;25.904;2022-08-20T10:27:46;10.73;;;6.20;;
8704;SDS011;4389;41.932;25.904;2022-08-20T10:30:14;7.35;;;6.13;;
8704;SDS011;4389;41.932;25.904;2022-08-20T10:32:41;12.30;;;5.95;;
8704;SDS011;4389;41.932;25.904;2022-08-20T10:35:07;8.95;;;6.20;;
8704;SDS011;4389;41.932;25.904;2022-08-20T10:37:34;8.15;;;6.47;;
8704;SDS011;4389;41.932;25.904;2022-08-20T10:40:03;9.25;;;6.32;;
8704;SDS011;4389;41.932;25.904;2022-08-20T10:42:31;15.70;;;6.35;;
8704;SDS011;4389;41.932;25.904;2022-08-20T10:44:58;7.30;;;5.60;;
8704;SDS011;4389;41.932;25.904;2022-08-20T10:47:26;67.88;;;10.32;;
8704;SDS011;4389;41.932;25.904;2022-08-20T10:49:55;15.23;;;6.65;;
8704;SDS011;4389;41.932;25.904;2022-08-20T10:52:23;11.27;;;6.28;;
8704;SDS011;4389;41.932;25.904;2022-08-20T10:54:51;10.05;;;7.10;;
8704;SDS011;4389;41.932;25.904;2022-08-20T10:57:21;10.98;;;6.88;;
8704;SDS011;4389;41.932;25.904;2022-08-20T10:59:50;17.02;;;6.40;;
8704;SDS011;4389;41.932;25.904;2022-08-20T11:02:18;8.13;;;7.15;;
8704;SDS011;4389;41.932;25.904;2022-08-20T11:04:46;15.13;;;6.93;;
8704;SDS011;4389;41.932;25.904;2022-08-20T11:07:14;15.35;;;7.57;;
8704;SDS011;4389;41.932;25.904;2022-08-20T11:09:43;16.63;;;5.68;;
8704;SDS011;4389;41.932;25.904;2022-08-20T11:12:11;9.55;;;6.05;;
8704;SDS011;4389;41.932;25.904;2022-08-20T11:14:40;11.30;;;6.35;;
8704;SDS011;4389;41.932;25.904;2022-08-20T11:17:07;6.80;;;5.45;;
8704;SDS011;4389;41.932;25.904;2022-08-20T11:19:37;7.78;;;6.20;;
8704;SDS011;4389;41.932;25.904;2022-08-20T11:22:04;8.70;;;5.95;;
8704;SDS011;4389;41.932;25.904;2022-08-20T11:24:31;10.00;;;5.70;;
8704;SDS011;4389;41.932;25.904;2022-08-20T11:26:58;8.07;;;5.47;;
8704;SDS011;4389;41.932;25.904;2022-08-20T11:29:25;8.23;;;5.22;;
8704;SDS011;4389;41.932;25.904;2022-08-20T11:31:53;7.45;;;5.05;;
8704;SDS011;4389;41.932;25.904;2022-08-20T11:34:20;9.20;;;6.13;;
8704;SDS011;4389;41.932;25.904;2022-08-20T11:36:47;12.82;;;6.07;;
8704;SDS011;4389;41.932;25.904;2022-08-20T11:39:14;12.43;;;6.32;;
8704;SDS011;4389;41.932;25.904;2022-08-20T11:41:41;10.25;;;6.88;;
8704;SDS011;4389;41.932;25.904;2022-08-20T11:44:08;13.43;;;6.47;;
8704;SDS011;4389;41.932;25.904;2022-08-20T11:46:35;14.10;;;6.18;;
8704;SDS011;4389;41.932;25.904;2022-08-20T11:49:04;10.05;;;6.13;;
8704;SDS011;4389;41.932;25.904;2022-08-20T11:51:31;8.57;;;6.55;;
8704;SDS011;4389;41.932;25.904;2022-08-20T11:53:57;6.53;;;5.72;;
8704;SDS011;4389;41.932;25.904;2022-08-20T11:56:25;10.25;;;5.97;;
8704;SDS011;4389;41.932;25.904;2022-08-20T11:58:52;9.70;;;6.13;;
8704;SDS011;4389;41.932;25.904;2022-08-20T12:01:19;7.80;;;6.72;;
8704;SDS011;4389;41.932;25.904;2022-08-20T12:03:46;6.72;;;5.90;;
8704;SDS011;4389;41.932;25.904;2022-08-20T12:06:14;9.82;;;6.35;;
8704;SDS011;4389;41.932;25.904;2022-08-20T12:08:43;26.55;;;7.00;;
8704;SDS011;4389;41.932;25.904;2022-08-20T12:11:10;10.70;;;5.60;;
8704;SDS011;4389;41.932;25.904;2022-08-20T12:13:36;9.10;;;6.00;;
8704;SDS011;4389;41.932;25.904;2022-08-20T12:16:03;6.60;;;5.72;;
8704;SDS011;4389;41.932;25.904;2022-08-20T12:18:31;7.38;;;6.03;;
8704;SDS011;4389;41.932;25.904;2022-08-20T12:20:58;9.90;;;5.68;;
8704;SDS011;4389;41.932;25.904;2022-08-20T12:23:26;14.63;;;6.95;;
8704;SDS011;4389;41.932;25.904;2022-08-20T12:25:53;10.18;;;6.47;;
8704;SDS011;4389;41.932;25.904;2022-08-20T12:28:20;8.82;;;6.80;;
8704;SDS011;4389;41.932;25.904;2022-08-20T12:30:47;9.75;;;6.57;;
8704;SDS011;4389;41.932;25.904;2022-08-20T12:33:14;12.73;;;5.82;;
8704;SDS011;4389;41.932;25.904;2022-08-20T12:35:41;14.45;;;7.30;;
8704;SDS011;4389;41.932;25.904;2022-08-20T12:38:08;9.70;;;7.07;;
8704;SDS011;4389;41.932;25.904;2022-08-20T12:40:37;12.27;;;6.20;;
8704;SDS011;4389;41.932;25.904;2022-08-20T12:43:04;11.55;;;6.22;;
8704;SDS011;4389;41.932;25.904;2022-08-20T12:45:31;12.10;;;6.00;;
8704;SDS011;4389;41.932;25.904;2022-08-20T12:47:59;11.00;;;5.88;;
8704;SDS011;4389;41.932;25.904;2022-08-20T12:50:28;9.27;;;5.97;;
8704;SDS011;4389;41.932;25.904;2022-08-20T12:52:55;125.82;;;14.50;;
8704;SDS011;4389;41.932;25.904;2022-08-20T12:55:22;14.40;;;6.93;;
8704;SDS011;4389;41.932;25.904;2022-08-20T12:57:52;9.75;;;6.45;;
8704;SDS011;4389;41.932;25.904;2022-08-20T13:00:23;17.75;;;7.40;;
8704;SDS011;4389;41.932;25.904;2022-08-20T13:02:52;11.38;;;6.00;;
8704;SDS011;4389;41.932;25.904;2022-08-20T13:05:21;7.05;;;5.80;;
8704;SDS011;4389;41.932;25.904;2022-08-20T13:07:48;7.97;;;6.47;;
8704;SDS011;4389;41.932;25.904;2022-08-20T13:10:16;11.27;;;6.25;;
8704;SDS011;4389;41.932;25.904;2022-08-20T13:12:46;11.95;;;6.47;;
8704;SDS011;4389;41.932;25.904;2022-08-20T13:15:15;14.13;;;6.00;;
8704;SDS011;4389;41.932;25.904;2022-08-20T13:17:42;12.25;;;6.78;;
8704;SDS011;4389;41.932;25.904;2022-08-20T13:20:10;12.18;;;6.47;;
8704;SDS011;4389;41.932;25.904;2022-08-20T13:22:39;11.07;;;6.50;;
8704;SDS011;4389;41.932;25.904;2022-08-20T13:25:07;20.30;;;7.60;;
8704;SDS011;4389;41.932;25.904;2022-08-20T13:27:35;18.17;;;6.60;;
8704;SDS011;4389;41.932;25.904;2022-08-20T13:30:03;17.60;;;6.38;;
8704;SDS011;4389;41.932;25.904;2022-08-20T13:32:33;14.10;;;6.38;;
8704;SDS011;4389;41.932;25.904;2022-08-20T13:35:00;14.30;;;6.75;;
8704;SDS011;4389;41.932;25.904;2022-08-20T13:37:27;9.73;;;6.53;;
8704;SDS011;4389;41.932;25.904;2022-08-20T13:39:55;17.15;;;7.15;;
8704;SDS011;4389;41.932;25.904;2022-08-20T13:42:23;13.30;;;6.60;;
8704;SDS011;4389;41.932;25.904;2022-08-20T13:44:51;9.05;;;5.70;;
8704;SDS011;4389;41.932;25.904;2022-08-20T13:47:19;8.35;;;5.85;;
8704;SDS011;4389;41.932;25.904;2022-08-20T13:49:53;11.70;;;6.65;;
8704;SDS011;4389;41.932;25.904;2022-08-20T13:52:21;13.32;;;6.00;;
8704;SDS011;4389;41.932;25.904;2022-08-20T13:54:48;11.70;;;5.95;;
8704;SDS011;4389;41.932;25.904;2022-08-20T13:57:15;7.72;;;6.00;;
8704;SDS011;4389;41.932;25.904;2022-08-20T13:59:45;7.43;;;5.85;;
8704;SDS011;4389;41.932;25.904;2022-08-20T14:02:14;7.93;;;6.07;;
8704;SDS011;4389;41.932;25.904;2022-08-20T14:04:42;18.20;;;6.82;;
8704;SDS011;4389;41.932;25.904;2022-08-20T14:07:11;7.50;;;5.75;;
8704;SDS011;4389;41.932;25.904;2022-08-20T14:09:39;12.63;;;6.65;;
8704;SDS011;4389;41.932;25.904;2022-08-20T14:12:07;9.75;;;7.15;;
8704;SDS011;4389;41.932;25.904;2022-08-20T14:14:35;12.27;;;6.47;;
8704;SDS011;4389;41.932;25.904;2022-08-20T14:17:15;14.40;;;7.50;;
8704;SDS011;4389;41.932;25.904;2022-08-20T14:19:44;15.70;;;6.68;;
8704;SDS011;4389;41.932;25.904;2022-08-20T14:22:13;11.23;;;6.40;;
8704;SDS011;4389;41.932;25.904;2022-08-20T14:24:41;7.68;;;5.90;;
8704;SDS011;4389;41.932;25.904;2022-08-20T14:27:08;7.75;;;5.80;;
8704;SDS011;4389;41.932;25.904;2022-08-20T14:29:36;9.40;;;6.18;;
8704;SDS011;4389;41.932;25.904;2022-08-20T14:32:04;7.15;;;5.97;;
8704;SDS011;4389;41.932;25.904;2022-08-20T14:34:31;8.90;;;6.25;;
8704;SDS011;4389;41.932;25.904;2022-08-20T14:37:08;7.18;;;6.47;;
8704;SDS011;4389;41.932;25.904;2022-08-20T14:39:37;8.48;;;6.68;;
8704;SDS011;4389;41.932;25.904;2022-08-20T14:42:04;8.57;;;6.10;;
8704;SDS011;4389;41.932;25.904;2022-08-20T14:44:31;9.00;;;6.43;;
8704;SDS011;4389;41.932;25.904;2022-08-20T14:47:08;13.32;;;6.75;;
8704;SDS011;4389;41.932;25.904;2022-08-20T14:49:39;12.52;;;6.80;;
8704;SDS011;4389;41.932;25.904;2022-08-20T14:52:07;8.93;;;6.10;;
8704;SDS011;4389;41.932;25.904;2022-08-20T14:54:33;8.18;;;6.97;;